sensor_id;sensor_type;location;lat;lon;timestamp;temperature;humidity
4306;DHT22;2166;49.926;8.608;2023-07-13T00:01:30;19.20;68.50
4306;DHT22;2166;49.926;8.608;2023-07-13T00:03:59;19.10;68.90
4306;DHT22;2166;49.926;8.608;2023-07-13T00:06:28;19.10;69.10
4306;DHT22;2166;49.926;8.608;2023-07-13T00:09:00;19.10;69.30
4306;DHT22;2166;49.926;8.608;2023-07-13T00:11:28;19.10;69.30
4306;DHT22;2166;49.926;8.608;2023-07-13T00:13:57;19.10;69.60
4306;DHT22;2166;49.926;8.608;2023-07-13T00:16:26;19.00;69.60
4306;DHT22;2166;49.926;8.608;2023-07-13T00:18:56;19.10;69.80
4306;DHT22;2166;49.926;8.608;2023-07-13T00:21:27;19.00;69.80
4306;DHT22;2166;49.926;8.608;2023-07-13T00:23:55;19.00;69.90
4306;DHT22;2166;49.926;8.608;2023-07-13T00:26:24;19.00;70.20
4306;DHT22;2166;49.926;8.608;2023-07-13T00:28:52;18.90;70.40
4306;DHT22;2166;49.926;8.608;2023-07-13T00:31:21;18.90;70.90
4306;DHT22;2166;49.926;8.608;2023-07-13T00:33:50;18.70;71.60
4306;DHT22;2166;49.926;8.608;2023-07-13T00:36:25;18.60;71.70
4306;DHT22;2166;49.926;8.608;2023-07-13T00:38:53;18.60;72.30
4306;DHT22;2166;49.926;8.608;2023-07-13T00:41:21;18.40;73.00
4306;DHT22;2166;49.926;8.608;2023-07-13T00:43:50;18.40;73.20
4306;DHT22;2166;49.926;8.608;2023-07-13T00:46:25;18.30;73.50
4306;DHT22;2166;49.926;8.608;2023-07-13T00:48:56;18.20;73.60
4306;DHT22;2166;49.926;8.608;2023-07-13T00:51:32;18.20;73.70
4306;DHT22;2166;49.926;8.608;2023-07-13T00:54:08;18.00;74.00
4306;DHT22;2166;49.926;8.608;2023-07-13T00:56:39;18.00;74.00
4306;DHT22;2166;49.926;8.608;2023-07-13T00:59:11;17.90;73.80
4306;DHT22;2166;49.926;8.608;2023-07-13T01:01:42;17.90;74.10
4306;DHT22;2166;49.926;8.608;2023-07-13T01:04:11;17.80;74.10
4306;DHT22;2166;49.926;8.608;2023-07-13T01:06:43;17.70;74.40
4306;DHT22;2166;49.926;8.608;2023-07-13T01:09:12;17.70;74.30
4306;DHT22;2166;49.926;8.608;2023-07-13T01:11:41;17.70;74.20
4306;DHT22;2166;49.926;8.608;2023-07-13T01:14:12;17.70;74.10
4306;DHT22;2166;49.926;8.608;2023-07-13T01:16:44;17.60;74.40
4306;DHT22;2166;49.926;8.608;2023-07-13T01:19:23;17.50;74.60
4306;DHT22;2166;49.926;8.608;2023-07-13T01:21:58;17.40;74.90
4306;DHT22;2166;49.926;8.608;2023-07-13T01:24:27;17.30;74.90
4306;DHT22;2166;49.926;8.608;2023-07-13T01:26:55;17.20;75.00
4306;DHT22;2166;49.926;8.608;2023-07-13T01:29:25;17.20;75.00
4306;DHT22;2166;49.926;8.608;2023-07-13T01:31:53;17.20;75.20
4306;DHT22;2166;49.926;8.608;2023-07-13T01:34:25;17.10;75.20
4306;DHT22;2166;49.926;8.608;2023-07-13T01:36:54;17.00;75.20
4306;DHT22;2166;49.926;8.608;2023-07-13T01:39:24;17.00;75.50
4306;DHT22;2166;49.926;8.608;2023-07-13T01:41:53;16.90;75.50
4306;DHT22;2166;49.926;8.608;2023-07-13T01:44:21;16.90;75.40
4306;DHT22;2166;49.926;8.608;2023-07-13T01:46:50;16.80;75.50
4306;DHT22;2166;49.926;8.608;2023-07-13T01:49:19;16.80;75.50
4306;DHT22;2166;49.926;8.608;2023-07-13T01:51:49;16.80;75.50
4306;DHT22;2166;49.926;8.608;2023-07-13T01:54:17;16.80;75.50
4306;DHT22;2166;49.926;8.608;2023-07-13T01:56:47;16.70;75.60
4306;DHT22;2166;49.926;8.608;2023-07-13T01:59:16;16.60;75.50
4306;DHT22;2166;49.926;8.608;2023-07-13T02:01:44;16.60;75.70
4306;DHT22;2166;49.926;8.608;2023-07-13T02:04:13;16.50;75.70
4306;DHT22;2166;49.926;8.608;2023-07-13T02:06:42;16.30;75.70
4306;DHT22;2166;49.926;8.608;2023-07-13T02:09:12;16.10;75.70
4306;DHT22;2166;49.926;8.608;2023-07-13T02:11:43;15.90;75.60
4306;DHT22;2166;49.926;8.608;2023-07-13T02:14:13;15.80;75.70
4306;DHT22;2166;49.926;8.608;2023-07-13T02:16:42;15.80;75.70
4306;DHT22;2166;49.926;8.608;2023-07-13T02:19:11;15.80;75.60
4306;DHT22;2166;49.926;8.608;2023-07-13T02:21:39;15.80;75.70
4306;DHT22;2166;49.926;8.608;2023-07-13T02:24:08;16.00;75.70
4306;DHT22;2166;49.926;8.608;2023-07-13T02:26:36;16.10;75.70
4306;DHT22;2166;49.926;8.608;2023-07-13T02:29:07;16.20;75.60
4306;DHT22;2166;49.926;8.608;2023-07-13T02:31:38;16.30;75.60
4306;DHT22;2166;49.926;8.608;2023-07-13T02:34:06;16.40;75.70
4306;DHT22;2166;49.926;8.608;2023-07-13T02:36:36;16.50;75.60
4306;DHT22;2166;49.926;8.608;2023-07-13T02:39:07;16.60;75.60
4306;DHT22;2166;49.926;8.608;2023-07-13T02:41:36;16.70;75.50
4306;DHT22;2166;49.926;8.608;2023-07-13T02:44:05;16.70;75.50
4306;DHT22;2166;49.926;8.608;2023-07-13T02:46:38;16.60;75.50
4306;DHT22;2166;49.926;8.608;2023-07-13T02:49:07;16.50;75.70
4306;DHT22;2166;49.926;8.608;2023-07-13T02:51:38;16.40;75.70
4306;DHT22;2166;49.926;8.608;2023-07-13T02:54:08;16.30;75.80
4306;DHT22;2166;49.926;8.608;2023-07-13T02:56:38;16.30;75.80
4306;DHT22;2166;49.926;8.608;2023-07-13T02:59:07;16.20;75.90
4306;DHT22;2166;49.926;8.608;2023-07-13T03:01:36;16.10;75.90
4306;DHT22;2166;49.926;8.608;2023-07-13T03:04:05;16.00;75.90
4306;DHT22;2166;49.926;8.608;2023-07-13T03:06:35;16.00;75.90
4306;DHT22;2166;49.926;8.608;2023-07-13T03:09:04;15.90;76.00
4306;DHT22;2166;49.926;8.608;2023-07-13T03:11:35;15.80;76.10
4306;DHT22;2166;49.926;8.608;2023-07-13T03:14:16;15.70;76.00
4306;DHT22;2166;49.926;8.608;2023-07-13T03:16:44;15.70;76.10
4306;DHT22;2166;49.926;8.608;2023-07-13T03:19:14;15.60;76.10
4306;DHT22;2166;49.926;8.608;2023-07-13T03:21:47;15.60;76.10
4306;DHT22;2166;49.926;8.608;2023-07-13T03:24:16;15.50;76.10
4306;DHT22;2166;49.926;8.608;2023-07-13T03:26:45;15.50;76.10
4306;DHT22;2166;49.926;8.608;2023-07-13T03:29:14;15.50;76.00
4306;DHT22;2166;49.926;8.608;2023-07-13T03:31:44;15.50;76.10
4306;DHT22;2166;49.926;8.608;2023-07-13T03:34:15;15.40;76.10
4306;DHT22;2166;49.926;8.608;2023-07-13T03:36:43;15.40;76.10
4306;DHT22;2166;49.926;8.608;2023-07-13T03:39:13;15.40;76.20
4306;DHT22;2166;49.926;8.608;2023-07-13T03:41:47;15.40;76.20
4306;DHT22;2166;49.926;8.608;2023-07-13T03:44:16;15.40;76.20
4306;DHT22;2166;49.926;8.608;2023-07-13T03:46:48;15.40;76.20
4306;DHT22;2166;49.926;8.608;2023-07-13T03:49:20;15.40;76.10
4306;DHT22;2166;49.926;8.608;2023-07-13T03:51:48;15.40;76.20
4306;DHT22;2166;49.926;8.608;2023-07-13T03:54:21;15.40;76.10
4306;DHT22;2166;49.926;8.608;2023-07-13T03:56:50;15.50;76.10
4306;DHT22;2166;49.926;8.608;2023-07-13T03:59:21;15.50;76.10
4306;DHT22;2166;49.926;8.608;2023-07-13T04:01:51;15.60;76.10
4306;DHT22;2166;49.926;8.608;2023-07-13T04:04:21;15.60;76.10
4306;DHT22;2166;49.926;8.608;2023-07-13T04:06:50;15.60;76.10
4306;DHT22;2166;49.926;8.608;2023-07-13T04:09:19;15.70;76.10
4306;DHT22;2166;49.926;8.608;2023-07-13T04:11:48;15.70;76.10
4306;DHT22;2166;49.926;8.608;2023-07-13T04:14:16;15.80;76.20
4306;DHT22;2166;49.926;8.608;2023-07-13T04:16:46;15.80;76.20
4306;DHT22;2166;49.926;8.608;2023-07-13T04:19:14;16.00;76.00
4306;DHT22;2166;49.926;8.608;2023-07-13T04:21:45;16.30;76.10
4306;DHT22;2166;49.926;8.608;2023-07-13T04:24:13;16.80;75.80
4306;DHT22;2166;49.926;8.608;2023-07-13T04:26:42;17.30;75.20
4306;DHT22;2166;49.926;8.608;2023-07-13T04:29:10;17.80;74.80
4306;DHT22;2166;49.926;8.608;2023-07-13T04:31:39;18.50;74.00
4306;DHT22;2166;49.926;8.608;2023-07-13T04:34:08;19.10;72.80
4306;DHT22;2166;49.926;8.608;2023-07-13T04:36:37;19.70;71.60
4306;DHT22;2166;49.926;8.608;2023-07-13T04:39:07;20.20;70.60
4306;DHT22;2166;49.926;8.608;2023-07-13T04:41:37;20.70;68.60
4306;DHT22;2166;49.926;8.608;2023-07-13T04:44:06;21.10;67.90
4306;DHT22;2166;49.926;8.608;2023-07-13T04:46:35;21.60;65.60
4306;DHT22;2166;49.926;8.608;2023-07-13T04:49:04;21.70;65.10
4306;DHT22;2166;49.926;8.608;2023-07-13T04:51:33;21.60;65.10
4306;DHT22;2166;49.926;8.608;2023-07-13T04:54:01;21.40;65.80
4306;DHT22;2166;49.926;8.608;2023-07-13T04:56:31;21.40;66.30
4306;DHT22;2166;49.926;8.608;2023-07-13T04:58:59;21.40;66.30
4306;DHT22;2166;49.926;8.608;2023-07-13T05:01:27;21.40;66.30
4306;DHT22;2166;49.926;8.608;2023-07-13T05:03:56;21.50;66.10
4306;DHT22;2166;49.926;8.608;2023-07-13T05:06:27;21.50;66.10
4306;DHT22;2166;49.926;8.608;2023-07-13T05:08:57;21.80;65.20
4306;DHT22;2166;49.926;8.608;2023-07-13T05:11:26;21.90;64.10
4306;DHT22;2166;49.926;8.608;2023-07-13T05:13:56;22.00;63.50
4306;DHT22;2166;49.926;8.608;2023-07-13T05:16:25;22.10;64.00
4306;DHT22;2166;49.926;8.608;2023-07-13T05:18:54;22.20;63.20
4306;DHT22;2166;49.926;8.608;2023-07-13T05:21:22;22.70;62.40
4306;DHT22;2166;49.926;8.608;2023-07-13T05:23:51;23.20;60.50
4306;DHT22;2166;49.926;8.608;2023-07-13T05:26:20;23.50;59.70
4306;DHT22;2166;49.926;8.608;2023-07-13T05:28:48;23.90;58.70
4306;DHT22;2166;49.926;8.608;2023-07-13T05:31:19;24.10;58.10
4306;DHT22;2166;49.926;8.608;2023-07-13T05:33:48;24.40;57.70
4306;DHT22;2166;49.926;8.608;2023-07-13T05:36:16;24.90;56.20
4306;DHT22;2166;49.926;8.608;2023-07-13T05:38:44;25.40;54.50
4306;DHT22;2166;49.926;8.608;2023-07-13T05:41:13;25.80;53.70
4306;DHT22;2166;49.926;8.608;2023-07-13T05:43:42;25.80;53.80
4306;DHT22;2166;49.926;8.608;2023-07-13T05:46:10;26.10;53.80
4306;DHT22;2166;49.926;8.608;2023-07-13T05:48:41;26.40;52.70
4306;DHT22;2166;49.926;8.608;2023-07-13T05:51:10;26.50;52.60
4306;DHT22;2166;49.926;8.608;2023-07-13T05:53:39;27.00;51.40
4306;DHT22;2166;49.926;8.608;2023-07-13T05:56:07;27.20;50.80
4306;DHT22;2166;49.926;8.608;2023-07-13T05:58:37;27.90;49.80
4306;DHT22;2166;49.926;8.608;2023-07-13T06:01:09;28.30;48.20
4306;DHT22;2166;49.926;8.608;2023-07-13T06:03:40;28.20;47.70
4306;DHT22;2166;49.926;8.608;2023-07-13T06:06:10;27.90;47.90
4306;DHT22;2166;49.926;8.608;2023-07-13T06:08:39;27.90;48.20
4306;DHT22;2166;49.926;8.608;2023-07-13T06:11:13;28.30;47.00
4306;DHT22;2166;49.926;8.608;2023-07-13T06:13:44;28.20;47.00
4306;DHT22;2166;49.926;8.608;2023-07-13T06:16:14;28.40;46.60
4306;DHT22;2166;49.926;8.608;2023-07-13T06:18:47;28.60;46.30
4306;DHT22;2166;49.926;8.608;2023-07-13T06:21:18;28.50;46.30
4306;DHT22;2166;49.926;8.608;2023-07-13T06:23:47;28.50;46.90
4306;DHT22;2166;49.926;8.608;2023-07-13T06:26:17;28.60;46.20
4306;DHT22;2166;49.926;8.608;2023-07-13T06:28:46;28.30;45.70
4306;DHT22;2166;49.926;8.608;2023-07-13T06:31:16;28.20;46.10
4306;DHT22;2166;49.926;8.608;2023-07-13T06:33:49;28.60;45.60
4306;DHT22;2166;49.926;8.608;2023-07-13T06:36:20;28.60;45.30
4306;DHT22;2166;49.926;8.608;2023-07-13T06:38:49;28.80;45.40
4306;DHT22;2166;49.926;8.608;2023-07-13T06:41:17;28.90;44.80
4306;DHT22;2166;49.926;8.608;2023-07-13T06:43:46;29.60;43.70
4306;DHT22;2166;49.926;8.608;2023-07-13T06:46:15;29.80;43.20
4306;DHT22;2166;49.926;8.608;2023-07-13T06:48:43;30.20;42.80
4306;DHT22;2166;49.926;8.608;2023-07-13T06:51:13;30.10;42.90
4306;DHT22;2166;49.926;8.608;2023-07-13T06:53:42;30.00;42.90
4306;DHT22;2166;49.926;8.608;2023-07-13T06:56:11;30.30;42.40
4306;DHT22;2166;49.926;8.608;2023-07-13T06:58:41;30.40;42.50
4306;DHT22;2166;49.926;8.608;2023-07-13T07:01:11;30.10;42.70
4306;DHT22;2166;49.926;8.608;2023-07-13T07:03:39;30.50;42.70
4306;DHT22;2166;49.926;8.608;2023-07-13T07:06:15;31.20;41.10
4306;DHT22;2166;49.926;8.608;2023-07-13T07:08:43;31.30;41.00
4306;DHT22;2166;49.926;8.608;2023-07-13T07:11:16;30.40;42.40
4306;DHT22;2166;49.926;8.608;2023-07-13T07:13:45;30.40;42.40
4306;DHT22;2166;49.926;8.608;2023-07-13T07:16:14;30.40;42.20
4306;DHT22;2166;49.926;8.608;2023-07-13T07:18:44;30.20;42.50
4306;DHT22;2166;49.926;8.608;2023-07-13T07:21:15;30.50;42.50
4306;DHT22;2166;49.926;8.608;2023-07-13T07:23:43;30.80;42.30
4306;DHT22;2166;49.926;8.608;2023-07-13T07:26:14;31.30;41.00
4306;DHT22;2166;49.926;8.608;2023-07-13T07:28:43;31.20;41.50
4306;DHT22;2166;49.926;8.608;2023-07-13T07:31:33;31.80;41.00
4306;DHT22;2166;49.926;8.608;2023-07-13T07:34:07;31.60;40.40
4306;DHT22;2166;49.926;8.608;2023-07-13T07:36:38;30.60;42.10
4306;DHT22;2166;49.926;8.608;2023-07-13T07:39:10;31.00;41.10
4306;DHT22;2166;49.926;8.608;2023-07-13T07:41:39;30.90;41.60
4306;DHT22;2166;49.926;8.608;2023-07-13T07:44:23;31.40;40.50
4306;DHT22;2166;49.926;8.608;2023-07-13T07:46:51;31.90;40.10
4306;DHT22;2166;49.926;8.608;2023-07-13T07:49:20;31.80;39.90
4306;DHT22;2166;49.926;8.608;2023-07-13T07:51:50;31.20;40.70
4306;DHT22;2166;49.926;8.608;2023-07-13T07:54:21;31.00;41.20
4306;DHT22;2166;49.926;8.608;2023-07-13T07:57:09;31.60;40.40
4306;DHT22;2166;49.926;8.608;2023-07-13T07:59:40;32.30;39.70
4306;DHT22;2166;49.926;8.608;2023-07-13T08:02:12;31.90;40.00
4306;DHT22;2166;49.926;8.608;2023-07-13T08:05:02;32.00;39.70
4306;DHT22;2166;49.926;8.608;2023-07-13T08:07:36;31.60;40.10
4306;DHT22;2166;49.926;8.608;2023-07-13T08:10:07;31.30;40.60
4306;DHT22;2166;49.926;8.608;2023-07-13T08:12:37;31.50;40.80
4306;DHT22;2166;49.926;8.608;2023-07-13T08:15:13;31.90;40.70
4306;DHT22;2166;49.926;8.608;2023-07-13T08:17:42;32.60;39.10
4306;DHT22;2166;49.926;8.608;2023-07-13T08:20:11;31.50;39.90
4306;DHT22;2166;49.926;8.608;2023-07-13T08:22:44;30.60;40.80
4306;DHT22;2166;49.926;8.608;2023-07-13T08:25:13;30.10;42.00
4306;DHT22;2166;49.926;8.608;2023-07-13T08:27:42;30.50;41.90
4306;DHT22;2166;49.926;8.608;2023-07-13T08:30:10;30.50;41.90
4306;DHT22;2166;49.926;8.608;2023-07-13T08:32:39;30.70;40.80
4306;DHT22;2166;49.926;8.608;2023-07-13T08:35:08;30.80;41.30
4306;DHT22;2166;49.926;8.608;2023-07-13T08:37:37;31.30;40.90
4306;DHT22;2166;49.926;8.608;2023-07-13T08:40:08;31.10;40.70
4306;DHT22;2166;49.926;8.608;2023-07-13T08:42:42;31.00;41.00
4306;DHT22;2166;49.926;8.608;2023-07-13T08:45:20;30.70;41.40
4306;DHT22;2166;49.926;8.608;2023-07-13T08:47:53;31.00;41.10
4306;DHT22;2166;49.926;8.608;2023-07-13T08:50:27;30.70;40.60
4306;DHT22;2166;49.926;8.608;2023-07-13T08:52:56;30.20;41.40
4306;DHT22;2166;49.926;8.608;2023-07-13T08:55:31;30.10;42.00
4306;DHT22;2166;49.926;8.608;2023-07-13T08:58:05;31.00;40.30
4306;DHT22;2166;49.926;8.608;2023-07-13T09:00:51;30.90;40.20
4306;DHT22;2166;49.926;8.608;2023-07-13T09:03:29;30.70;40.50
4306;DHT22;2166;49.926;8.608;2023-07-13T09:05:59;30.40;40.90
4306;DHT22;2166;49.926;8.608;2023-07-13T09:08:46;30.10;41.20
4306;DHT22;2166;49.926;8.608;2023-07-13T09:11:34;29.90;41.90
4306;DHT22;2166;49.926;8.608;2023-07-13T09:14:15;30.20;41.80
4306;DHT22;2166;49.926;8.608;2023-07-13T09:16:49;30.30;41.20
4306;DHT22;2166;49.926;8.608;2023-07-13T09:19:23;30.30;41.00
4306;DHT22;2166;49.926;8.608;2023-07-13T09:21:54;30.30;40.90
4306;DHT22;2166;49.926;8.608;2023-07-13T09:24:31;30.70;41.30
4306;DHT22;2166;49.926;8.608;2023-07-13T09:27:14;31.00;39.70
4306;DHT22;2166;49.926;8.608;2023-07-13T09:29:48;30.80;40.20
4306;DHT22;2166;49.926;8.608;2023-07-13T09:32:21;30.70;40.90
4306;DHT22;2166;49.926;8.608;2023-07-13T09:34:52;30.80;39.50
4306;DHT22;2166;49.926;8.608;2023-07-13T09:37:24;30.70;40.00
4306;DHT22;2166;49.926;8.608;2023-07-13T09:39:56;31.10;39.20
4306;DHT22;2166;49.926;8.608;2023-07-13T09:42:27;31.70;37.90
4306;DHT22;2166;49.926;8.608;2023-07-13T09:44:58;31.30;38.50
4306;DHT22;2166;49.926;8.608;2023-07-13T09:47:28;31.20;38.50
4306;DHT22;2166;49.926;8.608;2023-07-13T09:49:59;30.70;38.70
4306;DHT22;2166;49.926;8.608;2023-07-13T09:52:40;31.00;39.50
4306;DHT22;2166;49.926;8.608;2023-07-13T09:55:25;31.10;38.90
4306;DHT22;2166;49.926;8.608;2023-07-13T09:57:56;30.60;39.20
4306;DHT22;2166;49.926;8.608;2023-07-13T10:00:27;31.00;38.80
4306;DHT22;2166;49.926;8.608;2023-07-13T10:03:01;30.90;38.60
4306;DHT22;2166;49.926;8.608;2023-07-13T10:05:39;30.70;39.00
4306;DHT22;2166;49.926;8.608;2023-07-13T10:08:20;30.50;38.90
4306;DHT22;2166;49.926;8.608;2023-07-13T10:10:57;30.00;39.60
4306;DHT22;2166;49.926;8.608;2023-07-13T10:13:30;29.90;40.40
4306;DHT22;2166;49.926;8.608;2023-07-13T10:16:01;30.00;39.70
4306;DHT22;2166;49.926;8.608;2023-07-13T10:18:41;30.50;39.20
4306;DHT22;2166;49.926;8.608;2023-07-13T10:21:17;30.80;38.70
4306;DHT22;2166;49.926;8.608;2023-07-13T10:23:55;30.30;39.30
4306;DHT22;2166;49.926;8.608;2023-07-13T10:26:27;30.00;40.20
4306;DHT22;2166;49.926;8.608;2023-07-13T10:29:04;30.90;39.40
4306;DHT22;2166;49.926;8.608;2023-07-13T10:31:37;31.20;38.80
4306;DHT22;2166;49.926;8.608;2023-07-13T10:34:11;31.90;38.10
4306;DHT22;2166;49.926;8.608;2023-07-13T10:36:43;32.40;37.40
4306;DHT22;2166;49.926;8.608;2023-07-13T10:39:17;32.00;35.60
4306;DHT22;2166;49.926;8.608;2023-07-13T10:41:52;30.80;37.20
4306;DHT22;2166;49.926;8.608;2023-07-13T10:44:25;30.90;37.70
4306;DHT22;2166;49.926;8.608;2023-07-13T10:46:58;30.50;37.40
4306;DHT22;2166;49.926;8.608;2023-07-13T10:49:28;29.80;38.60
4306;DHT22;2166;49.926;8.608;2023-07-13T10:51:58;30.00;38.60
4306;DHT22;2166;49.926;8.608;2023-07-13T10:54:30;31.20;36.70
4306;DHT22;2166;49.926;8.608;2023-07-13T10:57:16;31.80;36.20
4306;DHT22;2166;49.926;8.608;2023-07-13T10:59:49;32.50;35.40
4306;DHT22;2166;49.926;8.608;2023-07-13T11:02:39;32.90;34.30
4306;DHT22;2166;49.926;8.608;2023-07-13T11:05:22;32.70;34.50
4306;DHT22;2166;49.926;8.608;2023-07-13T11:07:56;32.60;34.80
4306;DHT22;2166;49.926;8.608;2023-07-13T11:10:50;32.20;34.40
4306;DHT22;2166;49.926;8.608;2023-07-13T11:13:55;31.80;36.10
4306;DHT22;2166;49.926;8.608;2023-07-13T11:16:45;31.70;35.50
4306;DHT22;2166;49.926;8.608;2023-07-13T11:19:42;32.50;34.30
4306;DHT22;2166;49.926;8.608;2023-07-13T11:22:13;32.20;34.80
4306;DHT22;2166;49.926;8.608;2023-07-13T11:24:50;32.20;35.20
4306;DHT22;2166;49.926;8.608;2023-07-13T11:27:34;33.30;34.30
4306;DHT22;2166;49.926;8.608;2023-07-13T11:30:22;33.70;33.10
4306;DHT22;2166;49.926;8.608;2023-07-13T11:33:10;32.50;34.80
4306;DHT22;2166;49.926;8.608;2023-07-13T11:35:45;32.50;35.00
4306;DHT22;2166;49.926;8.608;2023-07-13T11:38:18;34.00;33.80
4306;DHT22;2166;49.926;8.608;2023-07-13T11:40:48;34.70;32.30
4306;DHT22;2166;49.926;8.608;2023-07-13T11:43:22;34.70;32.60
4306;DHT22;2166;49.926;8.608;2023-07-13T11:45:52;33.90;33.70
4306;DHT22;2166;49.926;8.608;2023-07-13T11:48:26;34.20;33.90
4306;DHT22;2166;49.926;8.608;2023-07-13T11:50:57;35.00;33.20
4306;DHT22;2166;49.926;8.608;2023-07-13T11:53:29;34.10;33.10
4306;DHT22;2166;49.926;8.608;2023-07-13T11:56:00;33.10;34.60
4306;DHT22;2166;49.926;8.608;2023-07-13T11:58:29;32.30;35.80
4306;DHT22;2166;49.926;8.608;2023-07-13T12:01:00;32.40;36.70
4306;DHT22;2166;49.926;8.608;2023-07-13T12:03:34;32.30;36.40
4306;DHT22;2166;49.926;8.608;2023-07-13T12:06:05;31.70;36.50
4306;DHT22;2166;49.926;8.608;2023-07-13T12:08:38;31.30;36.80
4306;DHT22;2166;49.926;8.608;2023-07-13T12:11:15;30.70;37.70
4306;DHT22;2166;49.926;8.608;2023-07-13T12:13:47;31.30;37.10
4306;DHT22;2166;49.926;8.608;2023-07-13T12:16:20;31.60;36.50
4306;DHT22;2166;49.926;8.608;2023-07-13T12:18:54;31.10;37.20
4306;DHT22;2166;49.926;8.608;2023-07-13T12:21:31;30.50;37.80
4306;DHT22;2166;49.926;8.608;2023-07-13T12:24:03;30.30;38.40
4306;DHT22;2166;49.926;8.608;2023-07-13T12:26:33;30.70;37.80
4306;DHT22;2166;49.926;8.608;2023-07-13T12:29:05;30.70;37.90
4306;DHT22;2166;49.926;8.608;2023-07-13T12:31:35;30.60;37.70
4306;DHT22;2166;49.926;8.608;2023-07-13T12:34:09;30.80;38.60
4306;DHT22;2166;49.926;8.608;2023-07-13T12:36:46;30.40;38.30
4306;DHT22;2166;49.926;8.608;2023-07-13T12:39:18;30.50;38.20
4306;DHT22;2166;49.926;8.608;2023-07-13T12:41:48;31.40;37.50
4306;DHT22;2166;49.926;8.608;2023-07-13T12:44:18;31.60;36.80
4306;DHT22;2166;49.926;8.608;2023-07-13T12:47:04;30.80;37.60
4306;DHT22;2166;49.926;8.608;2023-07-13T12:49:43;30.30;37.90
4306;DHT22;2166;49.926;8.608;2023-07-13T12:52:15;29.80;38.50
4306;DHT22;2166;49.926;8.608;2023-07-13T12:54:53;29.60;38.60
4306;DHT22;2166;49.926;8.608;2023-07-13T12:57:38;29.30;39.00
4306;DHT22;2166;49.926;8.608;2023-07-13T13:00:21;29.20;39.40
4306;DHT22;2166;49.926;8.608;2023-07-13T13:02:56;29.00;40.40
4306;DHT22;2166;49.926;8.608;2023-07-13T13:05:43;29.20;40.40
4306;DHT22;2166;49.926;8.608;2023-07-13T13:08:13;29.40;40.10
4306;DHT22;2166;49.926;8.608;2023-07-13T13:10:42;29.30;39.90
4306;DHT22;2166;49.926;8.608;2023-07-13T13:13:12;28.90;40.50
4306;DHT22;2166;49.926;8.608;2023-07-13T13:15:43;28.80;41.20
4306;DHT22;2166;49.926;8.608;2023-07-13T13:18:16;29.00;41.20
4306;DHT22;2166;49.926;8.608;2023-07-13T13:20:48;29.30;40.10
4306;DHT22;2166;49.926;8.608;2023-07-13T13:23:18;29.30;40.30
4306;DHT22;2166;49.926;8.608;2023-07-13T13:25:49;29.60;40.00
4306;DHT22;2166;49.926;8.608;2023-07-13T13:28:19;30.10;39.40
4306;DHT22;2166;49.926;8.608;2023-07-13T13:30:50;29.90;38.80
4306;DHT22;2166;49.926;8.608;2023-07-13T13:33:21;29.70;39.00
4306;DHT22;2166;49.926;8.608;2023-07-13T13:35:52;29.40;39.90
4306;DHT22;2166;49.926;8.608;2023-07-13T13:38:26;29.30;39.80
4306;DHT22;2166;49.926;8.608;2023-07-13T13:41:05;29.20;41.00
4306;DHT22;2166;49.926;8.608;2023-07-13T13:43:34;29.50;40.40
4306;DHT22;2166;49.926;8.608;2023-07-13T13:46:13;29.90;40.70
4306;DHT22;2166;49.926;8.608;2023-07-13T13:48:43;30.40;38.80
4306;DHT22;2166;49.926;8.608;2023-07-13T13:51:15;30.50;39.20
4306;DHT22;2166;49.926;8.608;2023-07-13T13:53:44;30.10;38.90
4306;DHT22;2166;49.926;8.608;2023-07-13T13:56:13;29.60;39.80
4306;DHT22;2166;49.926;8.608;2023-07-13T13:58:43;29.50;40.20
4306;DHT22;2166;49.926;8.608;2023-07-13T14:01:18;29.10;41.10
4306;DHT22;2166;49.926;8.608;2023-07-13T14:03:47;29.00;41.30
4306;DHT22;2166;49.926;8.608;2023-07-13T14:06:22;29.50;40.00
4306;DHT22;2166;49.926;8.608;2023-07-13T14:08:50;29.90;39.90
4306;DHT22;2166;49.926;8.608;2023-07-13T14:11:21;30.70;39.00
4306;DHT22;2166;49.926;8.608;2023-07-13T14:13:53;31.20;38.30
4306;DHT22;2166;49.926;8.608;2023-07-13T14:16:25;31.20;37.70
4306;DHT22;2166;49.926;8.608;2023-07-13T14:18:56;30.50;38.20
4306;DHT22;2166;49.926;8.608;2023-07-13T14:21:29;29.90;39.20
4306;DHT22;2166;49.926;8.608;2023-07-13T14:23:58;29.40;39.90
4306;DHT22;2166;49.926;8.608;2023-07-13T14:26:27;29.30;40.20
4306;DHT22;2166;49.926;8.608;2023-07-13T14:28:58;29.50;39.80
4306;DHT22;2166;49.926;8.608;2023-07-13T14:31:27;29.50;40.10
4306;DHT22;2166;49.926;8.608;2023-07-13T14:33:57;29.40;40.10
4306;DHT22;2166;49.926;8.608;2023-07-13T14:36:31;29.30;40.70
4306;DHT22;2166;49.926;8.608;2023-07-13T14:39:04;29.10;41.20
4306;DHT22;2166;49.926;8.608;2023-07-13T14:41:38;29.20;41.00
4306;DHT22;2166;49.926;8.608;2023-07-13T14:44:12;29.30;40.60
4306;DHT22;2166;49.926;8.608;2023-07-13T14:46:41;29.30;40.30
4306;DHT22;2166;49.926;8.608;2023-07-13T14:49:16;29.20;40.30
4306;DHT22;2166;49.926;8.608;2023-07-13T14:51:51;29.10;39.40
4306;DHT22;2166;49.926;8.608;2023-07-13T14:54:20;28.80;40.20
4306;DHT22;2166;49.926;8.608;2023-07-13T14:56:49;28.80;40.20
4306;DHT22;2166;49.926;8.608;2023-07-13T14:59:22;28.70;40.00
4306;DHT22;2166;49.926;8.608;2023-07-13T15:01:52;28.20;40.70
4306;DHT22;2166;49.926;8.608;2023-07-13T15:04:24;27.90;41.50
4306;DHT22;2166;49.926;8.608;2023-07-13T15:06:58;27.80;42.20
4306;DHT22;2166;49.926;8.608;2023-07-13T15:09:29;27.80;42.90
4306;DHT22;2166;49.926;8.608;2023-07-13T15:11:58;27.70;42.90
4306;DHT22;2166;49.926;8.608;2023-07-13T15:14:27;27.60;43.00
4306;DHT22;2166;49.926;8.608;2023-07-13T15:16:58;27.40;43.40
4306;DHT22;2166;49.926;8.608;2023-07-13T15:19:28;27.20;43.50
4306;DHT22;2166;49.926;8.608;2023-07-13T15:22:00;27.00;44.20
4306;DHT22;2166;49.926;8.608;2023-07-13T15:24:29;26.90;43.90
4306;DHT22;2166;49.926;8.608;2023-07-13T15:26:59;27.00;44.20
4306;DHT22;2166;49.926;8.608;2023-07-13T15:29:29;27.30;44.10
4306;DHT22;2166;49.926;8.608;2023-07-13T15:31:58;27.50;43.30
4306;DHT22;2166;49.926;8.608;2023-07-13T15:34:27;27.70;42.90
4306;DHT22;2166;49.926;8.608;2023-07-13T15:36:58;27.80;42.90
4306;DHT22;2166;49.926;8.608;2023-07-13T15:39:28;27.90;42.60
4306;DHT22;2166;49.926;8.608;2023-07-13T15:41:58;27.80;42.80
4306;DHT22;2166;49.926;8.608;2023-07-13T15:44:29;27.70;42.60
4306;DHT22;2166;49.926;8.608;2023-07-13T15:46:59;27.90;42.70
4306;DHT22;2166;49.926;8.608;2023-07-13T15:49:31;28.20;42.40
4306;DHT22;2166;49.926;8.608;2023-07-13T15:52:03;28.20;42.00
4306;DHT22;2166;49.926;8.608;2023-07-13T15:54:32;28.20;42.10
4306;DHT22;2166;49.926;8.608;2023-07-13T15:57:01;28.30;42.50
4306;DHT22;2166;49.926;8.608;2023-07-13T15:59:30;28.30;42.10
4306;DHT22;2166;49.926;8.608;2023-07-13T16:01:58;28.20;42.20
4306;DHT22;2166;49.926;8.608;2023-07-13T16:04:28;28.30;42.10
4306;DHT22;2166;49.926;8.608;2023-07-13T16:06:56;28.40;42.00
4306;DHT22;2166;49.926;8.608;2023-07-13T16:09:27;28.70;41.70
4306;DHT22;2166;49.926;8.608;2023-07-13T16:11:56;28.90;40.80
4306;DHT22;2166;49.926;8.608;2023-07-13T16:14:30;28.70;41.10
4306;DHT22;2166;49.926;8.608;2023-07-13T16:16:58;28.60;41.10
4306;DHT22;2166;49.926;8.608;2023-07-13T16:19:31;28.50;41.70
4306;DHT22;2166;49.926;8.608;2023-07-13T16:22:01;28.60;41.80
4306;DHT22;2166;49.926;8.608;2023-07-13T16:24:33;28.60;41.30
4306;DHT22;2166;49.926;8.608;2023-07-13T16:27:04;28.60;40.70
4306;DHT22;2166;49.926;8.608;2023-07-13T16:29:34;28.80;40.00
4306;DHT22;2166;49.926;8.608;2023-07-13T16:32:05;28.80;40.50